GIA6155 WIMM-OEMA
Flight info
| Callsign | GIA6155 |
|---|---|
| Flight time | N/A |
| Altitude | 36000 |
| Route | MABIX P570 TVM UL425 ASPUX N315 SITOL DCT 22N051E DCT PUSON L883 KITUB Y511 ELONU |
| Aircraft | A339/H-SDE2E3FGHI2M1RWXYZ/HB1D1 |
Departure
| Time | 2026-04-23 17:11 |
|---|---|
| Airport | Kualanamu International Airport (WIMM) |
Arrival
| Time | N/A |
|---|---|
| Airport | Prince Mohammad Bin Abdulaziz Airport (OEMA) |
| Time | Latitude | Longitude | Altitude | Speed | Heading |
|---|---|---|---|---|---|
| 2026-04-23 16:50 | 3.63821 | 98.87918 | 41 ft | 0 kts | 224° |
| 2026-04-23 16:58 | 3.63822 | 98.87920 | 41 ft | 1 kts | 224° |
| 2026-04-23 16:58 | 3.63833 | 98.87929 | 41 ft | 2 kts | 224° |
| 2026-04-23 16:59 | 3.63844 | 98.87940 | 41 ft | 2 kts | 224° |
| 2026-04-23 16:59 | 3.63855 | 98.87950 | 41 ft | 2 kts | 229° |
| 2026-04-23 16:59 | 3.63862 | 98.87963 | 41 ft | 2 kts | 260° |
| 2026-04-23 16:59 | 3.63862 | 98.87978 | 41 ft | 2 kts | 283° |
| 2026-04-23 17:00 | 3.63856 | 98.87992 | 41 ft | 2 kts | 308° |
| 2026-04-23 17:00 | 3.63846 | 98.88003 | 41 ft | 2 kts | 318° |
| 2026-04-23 17:00 | 3.63839 | 98.88009 | 41 ft | 1 kts | 316° |
| 2026-04-23 17:00 | 3.63838 | 98.88010 | 41 ft | 0 kts | 316° |
| 2026-04-23 17:02 | 3.63839 | 98.88008 | 40 ft | 0 kts | 315° |
| 2026-04-23 17:02 | 3.63847 | 98.88000 | 40 ft | 2 kts | 313° |
| 2026-04-23 17:03 | 3.63862 | 98.87985 | 41 ft | 3 kts | 313° |
| 2026-04-23 17:03 | 3.63887 | 98.87963 | 40 ft | 5 kts | 332° |
| 2026-04-23 17:03 | 3.63920 | 98.87963 | 40 ft | 5 kts | 23° |
| 2026-04-23 17:03 | 3.63954 | 98.87988 | 40 ft | 6 kts | 41° |
| 2026-04-23 17:04 | 3.63976 | 98.88009 | 40 ft | 3 kts | 45° |
| 2026-04-23 17:04 | 3.63996 | 98.88030 | 40 ft | 4 kts | 45° |
| 2026-04-23 17:04 | 3.64021 | 98.88055 | 40 ft | 5 kts | 44° |
| 2026-04-23 17:04 | 3.64055 | 98.88087 | 40 ft | 7 kts | 44° |
| 2026-04-23 17:05 | 3.64095 | 98.88126 | 40 ft | 8 kts | 44° |
| 2026-04-23 17:05 | 3.64137 | 98.88166 | 40 ft | 8 kts | 44° |
| 2026-04-23 17:05 | 3.64177 | 98.88193 | 40 ft | 7 kts | 14° |
| 2026-04-23 17:05 | 3.64222 | 98.88179 | 40 ft | 7 kts | 319° |
| 2026-04-23 17:06 | 3.64265 | 98.88138 | 40 ft | 9 kts | 315° |
| 2026-04-23 17:06 | 3.64312 | 98.88091 | 40 ft | 9 kts | 315° |
| 2026-04-23 17:06 | 3.64363 | 98.88041 | 40 ft | 10 kts | 313° |
| 2026-04-23 17:06 | 3.64414 | 98.87989 | 40 ft | 8 kts | 320° |
| 2026-04-23 17:07 | 3.64471 | 98.87985 | 40 ft | 8 kts | 26° |
| 2026-04-23 17:07 | 3.64517 | 98.88032 | 40 ft | 9 kts | 47° |
| 2026-04-23 17:07 | 3.64566 | 98.88083 | 40 ft | 10 kts | 45° |
| 2026-04-23 17:07 | 3.64619 | 98.88137 | 40 ft | 11 kts | 44° |
| 2026-04-23 17:08 | 3.64677 | 98.88193 | 40 ft | 11 kts | 44° |
| 2026-04-23 17:08 | 3.64737 | 98.88252 | 40 ft | 11 kts | 44° |
| 2026-04-23 17:08 | 3.64796 | 98.88309 | 40 ft | 10 kts | 40° |
| 2026-04-23 17:08 | 3.64863 | 98.88326 | 40 ft | 10 kts | 347° |
| 2026-04-23 17:09 | 3.64923 | 98.88288 | 40 ft | 10 kts | 313° |
| 2026-04-23 17:09 | 3.64958 | 98.88242 | 40 ft | 7 kts | 277° |
| 2026-04-23 17:09 | 3.64938 | 98.88204 | 40 ft | 0 kts | 227° |
| 2026-04-23 17:09 | 3.64938 | 98.88203 | 40 ft | 0 kts | 227° |
| 2026-04-23 17:10 | 3.64881 | 98.88144 | 40 ft | 35 kts | 225° |
| 2026-04-23 17:10 | 3.64556 | 98.87823 | 40 ft | 94 kts | 225° |
| 2026-04-23 17:10 | 3.63988 | 98.87257 | 41 ft | 142 kts | 225° |
| 2026-04-23 17:10 | 3.63169 | 98.86446 | 51 ft | 183 kts | 224° |
| 2026-04-23 17:11 | 3.62218 | 98.85477 | 323 ft | 198 kts | 225° |
| 2026-04-23 17:11 | 3.61262 | 98.84506 | 983 ft | 193 kts | 225° |
| 2026-04-23 17:11 | 3.60326 | 98.83581 | 1606 ft | 192 kts | 225° |
| 2026-04-23 17:11 | 3.59357 | 98.82639 | 1980 ft | 197 kts | 224° |
| 2026-04-23 17:12 | 3.58502 | 98.81535 | 2186 ft | 208 kts | 254° |
| 2026-04-23 17:12 | 3.58289 | 98.80074 | 2418 ft | 219 kts | 265° |
| 2026-04-23 17:12 | 3.58135 | 98.78503 | 2671 ft | 233 kts | 264° |
| 2026-04-23 17:12 | 3.57957 | 98.76831 | 2933 ft | 248 kts | 264° |
| 2026-04-23 17:13 | 3.57759 | 98.75074 | 3195 ft | 263 kts | 264° |
| 2026-04-23 17:13 | 3.57546 | 98.73220 | 3565 ft | 273 kts | 264° |
| 2026-04-23 17:13 | 3.57321 | 98.71301 | 4106 ft | 276 kts | 264° |
| 2026-04-23 17:13 | 3.57098 | 98.69403 | 4657 ft | 278 kts | 264° |
| 2026-04-23 17:14 | 3.56870 | 98.67471 | 5178 ft | 281 kts | 264° |
| 2026-04-23 17:14 | 3.56639 | 98.65525 | 5686 ft | 284 kts | 264° |
| 2026-04-23 17:14 | 3.56408 | 98.63570 | 6188 ft | 287 kts | 264° |
| 2026-04-23 17:14 | 3.56174 | 98.61583 | 6715 ft | 289 kts | 264° |
| 2026-04-23 17:15 | 3.55938 | 98.59582 | 7218 ft | 291 kts | 264° |
| 2026-04-23 17:15 | 3.55700 | 98.57561 | 7726 ft | 293 kts | 264° |
| 2026-04-23 17:15 | 3.55464 | 98.55571 | 8211 ft | 295 kts | 264° |
| 2026-04-23 17:15 | 3.55224 | 98.53538 | 8694 ft | 297 kts | 263° |
| 2026-04-23 17:16 | 3.54979 | 98.51473 | 9176 ft | 299 kts | 263° |
| 2026-04-23 17:16 | 3.54730 | 98.49384 | 9654 ft | 301 kts | 263° |
| 2026-04-23 17:16 | 3.54484 | 98.47310 | 10116 ft | 303 kts | 263° |
| 2026-04-23 17:16 | 3.54232 | 98.45198 | 10413 ft | 312 kts | 263° |
| 2026-04-23 17:17 | 3.53969 | 98.42989 | 10624 ft | 324 kts | 263° |
| 2026-04-23 17:17 | 3.53697 | 98.40693 | 10828 ft | 336 kts | 263° |
| 2026-04-23 17:17 | 3.53418 | 98.38342 | 11031 ft | 348 kts | 263° |
| 2026-04-23 17:17 | 3.53129 | 98.35908 | 11230 ft | 359 kts | 263° |
| 2026-04-23 17:18 | 3.52524 | 98.30817 | 11901 ft | 372 kts | 263° |
| 2026-04-23 17:18 | 3.52215 | 98.28213 | 12377 ft | 374 kts | 263° |
| 2026-04-23 17:18 | 3.51910 | 98.25646 | 12825 ft | 376 kts | 263° |
| 2026-04-23 17:19 | 3.51599 | 98.23022 | 13293 ft | 378 kts | 263° |
| 2026-04-23 17:19 | 3.51078 | 98.20445 | 13696 ft | 381 kts | 249° |
| 2026-04-23 17:19 | 3.49831 | 98.18137 | 14117 ft | 382 kts | 237° |
| 2026-04-23 17:19 | 3.48584 | 98.15768 | 14519 ft | 386 kts | 253° |
| 2026-04-23 17:20 | 3.48142 | 98.13113 | 14916 ft | 389 kts | 264° |
| 2026-04-23 17:20 | 3.47865 | 98.07712 | 15695 ft | 395 kts | 269° |
| 2026-04-23 17:21 | 3.47831 | 98.02183 | 16439 ft | 401 kts | 269° |
| 2026-04-23 17:21 | 3.47756 | 97.99371 | 16821 ft | 403 kts | 268° |